sensor_id;sensor_type;location;lat;lon;timestamp;P1;durP1;ratioP1;P2;durP2;ratioP2
34200;SDS011;20469;55.638;37.670;2023-05-07T00:00:23;3.20;;;2.90;;
34200;SDS011;20469;55.638;37.670;2023-05-07T00:02:51;3.47;;;2.97;;
34200;SDS011;20469;55.638;37.670;2023-05-07T00:05:19;7.03;;;3.50;;
34200;SDS011;20469;55.638;37.670;2023-05-07T00:07:46;4.78;;;3.22;;
34200;SDS011;20469;55.638;37.670;2023-05-07T00:10:14;3.70;;;3.30;;
34200;SDS011;20469;55.638;37.670;2023-05-07T00:12:41;4.13;;;2.95;;
34200;SDS011;20469;55.638;37.670;2023-05-07T00:15:08;6.72;;;3.70;;
34200;SDS011;20469;55.638;37.670;2023-05-07T00:17:36;5.00;;;3.20;;
34200;SDS011;20469;55.638;37.670;2023-05-07T00:20:04;4.28;;;3.47;;
34200;SDS011;20469;55.638;37.670;2023-05-07T00:22:32;4.25;;;2.80;;
34200;SDS011;20469;55.638;37.670;2023-05-07T00:25:00;5.97;;;3.40;;
34200;SDS011;20469;55.638;37.670;2023-05-07T00:27:32;9.57;;;4.10;;
34200;SDS011;20469;55.638;37.670;2023-05-07T00:29:59;4.57;;;3.50;;
34200;SDS011;20469;55.638;37.670;2023-05-07T00:32:33;6.18;;;3.38;;
34200;SDS011;20469;55.638;37.670;2023-05-07T00:35:00;4.10;;;3.30;;
34200;SDS011;20469;55.638;37.670;2023-05-07T00:37:29;7.25;;;3.67;;
34200;SDS011;20469;55.638;37.670;2023-05-07T00:39:57;5.18;;;3.80;;
34200;SDS011;20469;55.638;37.670;2023-05-07T00:42:24;5.82;;;3.47;;
34200;SDS011;20469;55.638;37.670;2023-05-07T00:44:52;4.35;;;3.42;;
34200;SDS011;20469;55.638;37.670;2023-05-07T00:47:19;5.50;;;3.58;;
34200;SDS011;20469;55.638;37.670;2023-05-07T00:49:46;4.40;;;3.58;;
34200;SDS011;20469;55.638;37.670;2023-05-07T00:52:14;4.18;;;3.40;;
34200;SDS011;20469;55.638;37.670;2023-05-07T00:54:43;6.10;;;3.53;;
34200;SDS011;20469;55.638;37.670;2023-05-07T00:57:11;3.40;;;3.10;;
34200;SDS011;20469;55.638;37.670;2023-05-07T00:59:38;3.60;;;3.25;;
34200;SDS011;20469;55.638;37.670;2023-05-07T01:02:07;5.60;;;3.55;;
34200;SDS011;20469;55.638;37.670;2023-05-07T01:04:34;5.55;;;3.63;;
34200;SDS011;20469;55.638;37.670;2023-05-07T01:07:02;4.70;;;3.40;;
34200;SDS011;20469;55.638;37.670;2023-05-07T01:09:30;5.65;;;3.33;;
34200;SDS011;20469;55.638;37.670;2023-05-07T01:11:58;5.28;;;3.40;;
34200;SDS011;20469;55.638;37.670;2023-05-07T01:14:26;3.47;;;3.17;;
34200;SDS011;20469;55.638;37.670;2023-05-07T01:16:53;3.97;;;3.30;;
34200;SDS011;20469;55.638;37.670;2023-05-07T01:19:21;3.70;;;3.35;;
34200;SDS011;20469;55.638;37.670;2023-05-07T01:21:48;3.95;;;3.40;;
34200;SDS011;20469;55.638;37.670;2023-05-07T01:24:17;4.50;;;3.55;;
34200;SDS011;20469;55.638;37.670;2023-05-07T01:26:45;4.55;;;3.45;;
34200;SDS011;20469;55.638;37.670;2023-05-07T01:29:12;4.55;;;3.08;;
34200;SDS011;20469;55.638;37.670;2023-05-07T01:31:40;6.38;;;3.72;;
34200;SDS011;20469;55.638;37.670;2023-05-07T01:34:09;4.10;;;3.20;;
34200;SDS011;20469;55.638;37.670;2023-05-07T01:36:39;5.63;;;3.70;;
34200;SDS011;20469;55.638;37.670;2023-05-07T01:39:09;4.57;;;3.58;;
34200;SDS011;20469;55.638;37.670;2023-05-07T01:41:37;5.72;;;3.17;;
34200;SDS011;20469;55.638;37.670;2023-05-07T01:44:04;6.13;;;3.70;;
34200;SDS011;20469;55.638;37.670;2023-05-07T01:46:32;5.40;;;3.80;;
34200;SDS011;20469;55.638;37.670;2023-05-07T01:49:00;4.35;;;3.10;;
34200;SDS011;20469;55.638;37.670;2023-05-07T01:51:27;6.50;;;3.50;;
34200;SDS011;20469;55.638;37.670;2023-05-07T01:53:55;5.47;;;3.50;;
34200;SDS011;20469;55.638;37.670;2023-05-07T01:56:22;6.68;;;3.55;;
34200;SDS011;20469;55.638;37.670;2023-05-07T01:58:50;5.25;;;3.97;;
34200;SDS011;20469;55.638;37.670;2023-05-07T02:01:18;5.10;;;3.75;;
34200;SDS011;20469;55.638;37.670;2023-05-07T02:03:45;5.00;;;3.45;;
34200;SDS011;20469;55.638;37.670;2023-05-07T02:06:13;7.05;;;3.60;;
34200;SDS011;20469;55.638;37.670;2023-05-07T02:08:40;3.63;;;3.22;;
34200;SDS011;20469;55.638;37.670;2023-05-07T02:11:07;5.80;;;3.78;;
34200;SDS011;20469;55.638;37.670;2023-05-07T02:13:36;4.38;;;3.13;;
34200;SDS011;20469;55.638;37.670;2023-05-07T02:16:05;4.35;;;3.80;;
34200;SDS011;20469;55.638;37.670;2023-05-07T02:18:33;5.93;;;3.95;;
34200;SDS011;20469;55.638;37.670;2023-05-07T02:21:00;3.42;;;3.10;;
34200;SDS011;20469;55.638;37.670;2023-05-07T02:23:27;6.05;;;3.67;;
34200;SDS011;20469;55.638;37.670;2023-05-07T02:25:55;4.47;;;3.33;;
34200;SDS011;20469;55.638;37.670;2023-05-07T02:28:22;5.40;;;3.60;;
34200;SDS011;20469;55.638;37.670;2023-05-07T02:30:49;5.88;;;3.97;;
34200;SDS011;20469;55.638;37.670;2023-05-07T02:33:17;5.57;;;4.13;;
34200;SDS011;20469;55.638;37.670;2023-05-07T02:35:44;6.45;;;4.35;;
34200;SDS011;20469;55.638;37.670;2023-05-07T02:38:11;7.57;;;4.13;;
34200;SDS011;20469;55.638;37.670;2023-05-07T02:40:38;5.43;;;4.15;;
34200;SDS011;20469;55.638;37.670;2023-05-07T02:43:06;6.72;;;4.47;;
34200;SDS011;20469;55.638;37.670;2023-05-07T02:45:33;5.78;;;3.80;;
34200;SDS011;20469;55.638;37.670;2023-05-07T02:48:00;7.85;;;4.43;;
34200;SDS011;20469;55.638;37.670;2023-05-07T02:50:28;5.78;;;3.85;;
34200;SDS011;20469;55.638;37.670;2023-05-07T02:52:55;4.60;;;3.97;;
34200;SDS011;20469;55.638;37.670;2023-05-07T02:55:22;7.20;;;4.00;;
34200;SDS011;20469;55.638;37.670;2023-05-07T02:57:49;5.35;;;3.70;;
34200;SDS011;20469;55.638;37.670;2023-05-07T03:00:17;5.55;;;3.58;;
34200;SDS011;20469;55.638;37.670;2023-05-07T03:02:45;4.75;;;4.00;;
34200;SDS011;20469;55.638;37.670;2023-05-07T03:05:13;7.07;;;3.95;;
34200;SDS011;20469;55.638;37.670;2023-05-07T03:07:40;5.45;;;3.50;;
34200;SDS011;20469;55.638;37.670;2023-05-07T03:10:11;7.55;;;4.40;;
34200;SDS011;20469;55.638;37.670;2023-05-07T03:12:38;4.75;;;4.10;;
34200;SDS011;20469;55.638;37.670;2023-05-07T03:15:06;5.15;;;3.60;;
34200;SDS011;20469;55.638;37.670;2023-05-07T03:17:34;7.28;;;4.50;;
34200;SDS011;20469;55.638;37.670;2023-05-07T03:20:01;7.85;;;3.92;;
34200;SDS011;20469;55.638;37.670;2023-05-07T03:22:29;6.53;;;3.85;;
34200;SDS011;20469;55.638;37.670;2023-05-07T03:24:57;5.45;;;4.50;;
34200;SDS011;20469;55.638;37.670;2023-05-07T03:27:24;6.57;;;5.07;;
34200;SDS011;20469;55.638;37.670;2023-05-07T03:29:51;6.20;;;4.72;;
34200;SDS011;20469;55.638;37.670;2023-05-07T03:32:18;5.22;;;4.72;;
34200;SDS011;20469;55.638;37.670;2023-05-07T03:34:45;7.18;;;4.60;;
34200;SDS011;20469;55.638;37.670;2023-05-07T03:37:12;6.20;;;4.55;;
34200;SDS011;20469;55.638;37.670;2023-05-07T03:39:40;5.68;;;4.60;;
34200;SDS011;20469;55.638;37.670;2023-05-07T03:42:07;6.20;;;4.57;;
34200;SDS011;20469;55.638;37.670;2023-05-07T03:44:34;6.30;;;4.47;;
34200;SDS011;20469;55.638;37.670;2023-05-07T03:47:02;6.88;;;4.07;;
34200;SDS011;20469;55.638;37.670;2023-05-07T03:49:30;6.68;;;4.28;;
34200;SDS011;20469;55.638;37.670;2023-05-07T03:51:57;7.10;;;4.00;;
34200;SDS011;20469;55.638;37.670;2023-05-07T03:54:24;4.53;;;3.53;;
34200;SDS011;20469;55.638;37.670;2023-05-07T03:56:52;5.63;;;3.78;;
34200;SDS011;20469;55.638;37.670;2023-05-07T03:59:19;7.53;;;4.05;;
34200;SDS011;20469;55.638;37.670;2023-05-07T04:01:46;5.55;;;4.20;;
34200;SDS011;20469;55.638;37.670;2023-05-07T04:04:14;6.07;;;3.78;;
34200;SDS011;20469;55.638;37.670;2023-05-07T04:06:41;4.55;;;3.85;;
34200;SDS011;20469;55.638;37.670;2023-05-07T04:09:08;4.30;;;3.55;;
34200;SDS011;20469;55.638;37.670;2023-05-07T04:11:35;8.23;;;3.30;;
34200;SDS011;20469;55.638;37.670;2023-05-07T04:14:03;5.20;;;3.38;;
34200;SDS011;20469;55.638;37.670;2023-05-07T04:16:30;4.35;;;3.20;;
34200;SDS011;20469;55.638;37.670;2023-05-07T04:18:57;4.63;;;3.30;;
34200;SDS011;20469;55.638;37.670;2023-05-07T04:21:24;3.47;;;3.17;;
34200;SDS011;20469;55.638;37.670;2023-05-07T04:23:52;6.60;;;3.67;;
34200;SDS011;20469;55.638;37.670;2023-05-07T04:26:19;4.88;;;3.30;;
34200;SDS011;20469;55.638;37.670;2023-05-07T04:28:47;10.13;;;3.53;;
34200;SDS011;20469;55.638;37.670;2023-05-07T04:31:14;9.07;;;3.33;;
34200;SDS011;20469;55.638;37.670;2023-05-07T04:33:42;9.70;;;3.28;;
34200;SDS011;20469;55.638;37.670;2023-05-07T04:36:09;7.18;;;3.22;;
34200;SDS011;20469;55.638;37.670;2023-05-07T04:38:36;7.72;;;3.10;;
34200;SDS011;20469;55.638;37.670;2023-05-07T04:41:04;3.83;;;3.13;;
34200;SDS011;20469;55.638;37.670;2023-05-07T04:43:32;4.03;;;2.70;;
34200;SDS011;20469;55.638;37.670;2023-05-07T04:45:59;4.13;;;3.22;;
34200;SDS011;20469;55.638;37.670;2023-05-07T04:48:27;2.80;;;2.40;;
34200;SDS011;20469;55.638;37.670;2023-05-07T04:50:55;2.80;;;2.50;;
34200;SDS011;20469;55.638;37.670;2023-05-07T04:53:22;4.93;;;2.60;;
34200;SDS011;20469;55.638;37.670;2023-05-07T04:55:54;9.40;;;3.05;;
34200;SDS011;20469;55.638;37.670;2023-05-07T04:58:24;3.88;;;2.20;;
34200;SDS011;20469;55.638;37.670;2023-05-07T05:00:52;5.40;;;2.10;;
34200;SDS011;20469;55.638;37.670;2023-05-07T05:03:19;6.28;;;2.50;;
34200;SDS011;20469;55.638;37.670;2023-05-07T05:05:48;2.75;;;2.10;;
34200;SDS011;20469;55.638;37.670;2023-05-07T05:08:16;7.30;;;2.30;;
34200;SDS011;20469;55.638;37.670;2023-05-07T05:10:43;2.92;;;2.00;;
34200;SDS011;20469;55.638;37.670;2023-05-07T05:13:11;3.05;;;2.17;;
34200;SDS011;20469;55.638;37.670;2023-05-07T05:15:39;16.27;;;2.60;;
34200;SDS011;20469;55.638;37.670;2023-05-07T05:18:06;4.93;;;2.22;;
34200;SDS011;20469;55.638;37.670;2023-05-07T05:20:34;2.88;;;2.40;;
34200;SDS011;20469;55.638;37.670;2023-05-07T05:23:01;3.38;;;2.38;;
34200;SDS011;20469;55.638;37.670;2023-05-07T05:25:28;5.38;;;2.47;;
34200;SDS011;20469;55.638;37.670;2023-05-07T05:27:55;4.30;;;2.13;;
34200;SDS011;20469;55.638;37.670;2023-05-07T05:30:23;3.55;;;2.25;;
34200;SDS011;20469;55.638;37.670;2023-05-07T05:32:50;2.97;;;1.90;;
34200;SDS011;20469;55.638;37.670;2023-05-07T05:35:17;5.38;;;2.10;;
34200;SDS011;20469;55.638;37.670;2023-05-07T05:37:44;2.33;;;1.90;;
34200;SDS011;20469;55.638;37.670;2023-05-07T05:40:11;2.55;;;2.20;;
34200;SDS011;20469;55.638;37.670;2023-05-07T05:42:39;2.80;;;2.17;;
34200;SDS011;20469;55.638;37.670;2023-05-07T05:45:06;4.22;;;2.00;;
34200;SDS011;20469;55.638;37.670;2023-05-07T05:47:34;3.92;;;2.10;;
34200;SDS011;20469;55.638;37.670;2023-05-07T05:50:01;5.25;;;2.10;;
34200;SDS011;20469;55.638;37.670;2023-05-07T05:52:31;2.97;;;1.85;;
34200;SDS011;20469;55.638;37.670;2023-05-07T05:54:58;6.10;;;2.00;;
34200;SDS011;20469;55.638;37.670;2023-05-07T05:57:25;4.88;;;1.70;;
34200;SDS011;20469;55.638;37.670;2023-05-07T05:59:54;2.10;;;1.90;;
34200;SDS011;20469;55.638;37.670;2023-05-07T06:02:21;2.63;;;1.50;;
34200;SDS011;20469;55.638;37.670;2023-05-07T06:04:48;3.92;;;2.13;;
34200;SDS011;20469;55.638;37.670;2023-05-07T06:07:16;2.72;;;2.20;;
34200;SDS011;20469;55.638;37.670;2023-05-07T06:09:43;2.67;;;1.98;;
34200;SDS011;20469;55.638;37.670;2023-05-07T06:12:11;3.25;;;2.00;;
34200;SDS011;20469;55.638;37.670;2023-05-07T06:14:38;4.38;;;1.80;;
34200;SDS011;20469;55.638;37.670;2023-05-07T06:17:07;9.82;;;2.10;;
34200;SDS011;20469;55.638;37.670;2023-05-07T06:19:34;2.95;;;2.10;;
34200;SDS011;20469;55.638;37.670;2023-05-07T06:22:01;2.20;;;1.75;;
34200;SDS011;20469;55.638;37.670;2023-05-07T06:24:29;3.03;;;1.70;;
34200;SDS011;20469;55.638;37.670;2023-05-07T06:26:56;3.42;;;1.80;;
34200;SDS011;20469;55.638;37.670;2023-05-07T06:29:25;3.38;;;1.80;;
34200;SDS011;20469;55.638;37.670;2023-05-07T06:31:52;6.10;;;1.83;;
34200;SDS011;20469;55.638;37.670;2023-05-07T06:34:20;3.17;;;1.77;;
34200;SDS011;20469;55.638;37.670;2023-05-07T06:36:47;4.88;;;2.08;;
34200;SDS011;20469;55.638;37.670;2023-05-07T06:39:14;2.72;;;2.03;;
34200;SDS011;20469;55.638;37.670;2023-05-07T06:41:42;2.58;;;1.90;;
34200;SDS011;20469;55.638;37.670;2023-05-07T06:44:09;3.65;;;1.92;;
34200;SDS011;20469;55.638;37.670;2023-05-07T06:46:36;4.93;;;2.10;;
34200;SDS011;20469;55.638;37.670;2023-05-07T06:49:03;3.08;;;1.95;;
34200;SDS011;20469;55.638;37.670;2023-05-07T06:51:31;2.13;;;1.80;;
34200;SDS011;20469;55.638;37.670;2023-05-07T06:53:58;8.05;;;2.15;;
34200;SDS011;20469;55.638;37.670;2023-05-07T06:56:25;6.90;;;2.35;;
34200;SDS011;20469;55.638;37.670;2023-05-07T06:58:53;1.92;;;1.75;;
34200;SDS011;20469;55.638;37.670;2023-05-07T07:01:20;5.50;;;1.90;;
34200;SDS011;20469;55.638;37.670;2023-05-07T07:03:47;3.55;;;1.63;;
34200;SDS011;20469;55.638;37.670;2023-05-07T07:06:15;4.78;;;1.95;;
34200;SDS011;20469;55.638;37.670;2023-05-07T07:08:42;5.78;;;1.75;;
34200;SDS011;20469;55.638;37.670;2023-05-07T07:11:09;1.77;;;1.25;;
34200;SDS011;20469;55.638;37.670;2023-05-07T07:13:36;2.35;;;1.58;;
34200;SDS011;20469;55.638;37.670;2023-05-07T07:16:04;1.90;;;1.30;;
34200;SDS011;20469;55.638;37.670;2023-05-07T07:18:31;3.33;;;1.50;;
34200;SDS011;20469;55.638;37.670;2023-05-07T07:20:58;2.47;;;1.52;;
34200;SDS011;20469;55.638;37.670;2023-05-07T07:23:26;3.00;;;1.70;;
34200;SDS011;20469;55.638;37.670;2023-05-07T07:25:53;4.15;;;1.67;;
34200;SDS011;20469;55.638;37.670;2023-05-07T07:28:21;3.08;;;1.90;;
34200;SDS011;20469;55.638;37.670;2023-05-07T07:30:48;3.97;;;1.92;;
34200;SDS011;20469;55.638;37.670;2023-05-07T07:33:16;2.97;;;1.83;;
34200;SDS011;20469;55.638;37.670;2023-05-07T07:35:43;2.90;;;1.58;;
34200;SDS011;20469;55.638;37.670;2023-05-07T07:38:10;2.28;;;1.80;;
34200;SDS011;20469;55.638;37.670;2023-05-07T07:40:38;4.00;;;1.70;;
34200;SDS011;20469;55.638;37.670;2023-05-07T07:43:05;2.92;;;1.75;;
34200;SDS011;20469;55.638;37.670;2023-05-07T07:45:33;3.38;;;1.63;;
34200;SDS011;20469;55.638;37.670;2023-05-07T07:48:01;2.25;;;1.80;;
34200;SDS011;20469;55.638;37.670;2023-05-07T07:50:28;2.22;;;1.63;;
34200;SDS011;20469;55.638;37.670;2023-05-07T07:53:09;3.72;;;1.55;;
34200;SDS011;20469;55.638;37.670;2023-05-07T07:55:39;3.33;;;1.48;;
34200;SDS011;20469;55.638;37.670;2023-05-07T07:58:07;3.53;;;1.50;;
34200;SDS011;20469;55.638;37.670;2023-05-07T08:00:34;1.75;;;1.48;;
34200;SDS011;20469;55.638;37.670;2023-05-07T08:03:01;3.45;;;1.40;;
34200;SDS011;20469;55.638;37.670;2023-05-07T08:05:29;2.78;;;1.20;;
34200;SDS011;20469;55.638;37.670;2023-05-07T08:07:57;2.38;;;1.50;;
34200;SDS011;20469;55.638;37.670;2023-05-07T08:10:25;4.22;;;1.60;;
34200;SDS011;20469;55.638;37.670;2023-05-07T08:12:52;3.92;;;1.60;;
34200;SDS011;20469;55.638;37.670;2023-05-07T08:15:19;4.65;;;1.60;;
34200;SDS011;20469;55.638;37.670;2023-05-07T08:17:46;6.50;;;1.98;;
34200;SDS011;20469;55.638;37.670;2023-05-07T08:20:13;3.75;;;1.85;;
34200;SDS011;20469;55.638;37.670;2023-05-07T08:22:41;2.90;;;1.85;;
34200;SDS011;20469;55.638;37.670;2023-05-07T08:25:08;3.10;;;1.50;;
34200;SDS011;20469;55.638;37.670;2023-05-07T08:27:36;2.67;;;1.55;;
34200;SDS011;20469;55.638;37.670;2023-05-07T08:30:03;3.42;;;1.40;;
34200;SDS011;20469;55.638;37.670;2023-05-07T08:32:31;2.42;;;1.30;;
34200;SDS011;20469;55.638;37.670;2023-05-07T08:34:58;1.65;;;1.45;;
34200;SDS011;20469;55.638;37.670;2023-05-07T08:37:26;3.30;;;1.60;;
34200;SDS011;20469;55.638;37.670;2023-05-07T08:39:53;2.00;;;1.40;;
34200;SDS011;20469;55.638;37.670;2023-05-07T08:42:21;3.42;;;1.20;;
34200;SDS011;20469;55.638;37.670;2023-05-07T08:44:51;1.85;;;1.35;;
34200;SDS011;20469;55.638;37.670;2023-05-07T08:47:20;2.38;;;1.30;;
34200;SDS011;20469;55.638;37.670;2023-05-07T08:49:55;4.00;;;1.50;;
34200;SDS011;20469;55.638;37.670;2023-05-07T08:52:22;2.70;;;1.58;;
34200;SDS011;20469;55.638;37.670;2023-05-07T08:54:49;7.93;;;1.50;;
34200;SDS011;20469;55.638;37.670;2023-05-07T08:57:16;2.70;;;1.50;;
34200;SDS011;20469;55.638;37.670;2023-05-07T08:59:43;4.93;;;1.40;;
34200;SDS011;20469;55.638;37.670;2023-05-07T09:02:11;4.32;;;1.48;;
34200;SDS011;20469;55.638;37.670;2023-05-07T09:04:38;4.22;;;1.52;;
34200;SDS011;20469;55.638;37.670;2023-05-07T09:07:05;3.15;;;1.60;;
34200;SDS011;20469;55.638;37.670;2023-05-07T09:09:33;3.45;;;1.30;;
34200;SDS011;20469;55.638;37.670;2023-05-07T09:12:00;2.95;;;1.35;;
34200;SDS011;20469;55.638;37.670;2023-05-07T09:14:28;2.20;;;1.63;;
34200;SDS011;20469;55.638;37.670;2023-05-07T09:16:56;2.88;;;1.60;;
34200;SDS011;20469;55.638;37.670;2023-05-07T09:19:24;5.05;;;1.60;;
34200;SDS011;20469;55.638;37.670;2023-05-07T09:22:01;3.42;;;1.40;;
34200;SDS011;20469;55.638;37.670;2023-05-07T09:24:30;3.00;;;1.50;;
34200;SDS011;20469;55.638;37.670;2023-05-07T09:27:01;1.20;;;1.10;;
34200;SDS011;20469;55.638;37.670;2023-05-07T09:29:29;1.33;;;1.17;;
34200;SDS011;20469;55.638;37.670;2023-05-07T09:32:01;1.80;;;1.27;;
34200;SDS011;20469;55.638;37.670;2023-05-07T09:34:30;2.70;;;1.13;;
34200;SDS011;20469;55.638;37.670;2023-05-07T09:37:00;2.63;;;1.10;;
34200;SDS011;20469;55.638;37.670;2023-05-07T09:39:45;4.43;;;1.35;;
34200;SDS011;20469;55.638;37.670;2023-05-07T09:42:13;1.45;;;1.02;;
34200;SDS011;20469;55.638;37.670;2023-05-07T09:44:45;2.95;;;1.20;;
34200;SDS011;20469;55.638;37.670;2023-05-07T09:47:14;1.98;;;1.13;;
34200;SDS011;20469;55.638;37.670;2023-05-07T09:49:46;1.92;;;1.00;;
34200;SDS011;20469;55.638;37.670;2023-05-07T09:52:14;1.88;;;1.08;;
34200;SDS011;20469;55.638;37.670;2023-05-07T09:54:43;2.33;;;1.20;;
34200;SDS011;20469;55.638;37.670;2023-05-07T09:57:13;2.15;;;1.35;;
34200;SDS011;20469;55.638;37.670;2023-05-07T09:59:42;3.50;;;1.50;;
34200;SDS011;20469;55.638;37.670;2023-05-07T10:02:10;3.33;;;1.30;;
34200;SDS011;20469;55.638;37.670;2023-05-07T10:04:38;3.05;;;1.58;;
34200;SDS011;20469;55.638;37.670;2023-05-07T10:07:06;2.78;;;1.40;;
34200;SDS011;20469;55.638;37.670;2023-05-07T10:09:35;2.60;;;1.50;;
34200;SDS011;20469;55.638;37.670;2023-05-07T10:12:05;2.67;;;1.40;;
34200;SDS011;20469;55.638;37.670;2023-05-07T10:14:33;2.20;;;1.48;;
34200;SDS011;20469;55.638;37.670;2023-05-07T10:17:02;4.28;;;1.40;;
34200;SDS011;20469;55.638;37.670;2023-05-07T10:19:30;2.55;;;1.30;;
34200;SDS011;20469;55.638;37.670;2023-05-07T10:22:05;5.10;;;1.38;;
34200;SDS011;20469;55.638;37.670;2023-05-07T10:24:33;2.60;;;1.30;;
34200;SDS011;20469;55.638;37.670;2023-05-07T10:27:09;3.20;;;1.45;;
34200;SDS011;20469;55.638;37.670;2023-05-07T10:29:42;1.60;;;1.20;;
34200;SDS011;20469;55.638;37.670;2023-05-07T10:32:38;2.65;;;1.30;;
34200;SDS011;20469;55.638;37.670;2023-05-07T10:35:10;2.08;;;1.10;;
34200;SDS011;20469;55.638;37.670;2023-05-07T10:37:45;5.15;;;1.27;;
34200;SDS011;20469;55.638;37.670;2023-05-07T10:40:15;4.43;;;1.40;;
34200;SDS011;20469;55.638;37.670;2023-05-07T10:42:56;2.65;;;1.50;;
34200;SDS011;20469;55.638;37.670;2023-05-07T10:45:26;5.15;;;1.40;;
34200;SDS011;20469;55.638;37.670;2023-05-07T10:48:05;1.40;;;1.25;;
34200;SDS011;20469;55.638;37.670;2023-05-07T10:51:17;2.75;;;1.30;;
34200;SDS011;20469;55.638;37.670;2023-05-07T10:53:48;3.95;;;1.70;;
34200;SDS011;20469;55.638;37.670;2023-05-07T10:56:29;2.15;;;1.50;;
34200;SDS011;20469;55.638;37.670;2023-05-07T10:59:00;2.97;;;1.35;;
34200;SDS011;20469;55.638;37.670;2023-05-07T11:01:50;1.90;;;1.27;;
34200;SDS011;20469;55.638;37.670;2023-05-07T11:04:22;3.25;;;1.45;;
34200;SDS011;20469;55.638;37.670;2023-05-07T11:15:08;1.58;;;1.30;;
34200;SDS011;20469;55.638;37.670;2023-05-07T11:17:52;5.35;;;1.40;;
34200;SDS011;20469;55.638;37.670;2023-05-07T11:28:38;5.82;;;1.45;;
34200;SDS011;20469;55.638;37.670;2023-05-07T11:31:06;3.10;;;1.30;;
34200;SDS011;20469;55.638;37.670;2023-05-07T11:33:35;1.67;;;1.42;;
34200;SDS011;20469;55.638;37.670;2023-05-07T11:36:03;2.92;;;1.40;;
34200;SDS011;20469;55.638;37.670;2023-05-07T11:38:34;2.55;;;1.60;;
34200;SDS011;20469;55.638;37.670;2023-05-07T11:41:03;3.22;;;1.40;;
34200;SDS011;20469;55.638;37.670;2023-05-07T11:43:32;3.45;;;1.42;;
34200;SDS011;20469;55.638;37.670;2023-05-07T11:46:07;10.13;;;1.90;;
34200;SDS011;20469;55.638;37.670;2023-05-07T11:48:38;2.95;;;1.10;;
34200;SDS011;20469;55.638;37.670;2023-05-07T11:51:06;4.32;;;1.30;;
34200;SDS011;20469;55.638;37.670;2023-05-07T11:56:10;1.77;;;1.55;;
34200;SDS011;20469;55.638;37.670;2023-05-07T11:58:39;3.70;;;1.60;;
34200;SDS011;20469;55.638;37.670;2023-05-07T12:01:07;3.72;;;1.50;;
34200;SDS011;20469;55.638;37.670;2023-05-07T12:03:42;2.35;;;1.52;;
34200;SDS011;20469;55.638;37.670;2023-05-07T12:06:15;3.20;;;1.52;;
34200;SDS011;20469;55.638;37.670;2023-05-07T12:08:44;2.85;;;1.55;;
34200;SDS011;20469;55.638;37.670;2023-05-07T12:11:15;4.68;;;1.60;;
34200;SDS011;20469;55.638;37.670;2023-05-07T12:13:44;4.00;;;1.45;;
34200;SDS011;20469;55.638;37.670;2023-05-07T12:16:12;3.38;;;1.60;;
34200;SDS011;20469;55.638;37.670;2023-05-07T12:18:39;3.47;;;1.50;;
34200;SDS011;20469;55.638;37.670;2023-05-07T12:21:07;2.80;;;1.63;;
34200;SDS011;20469;55.638;37.670;2023-05-07T12:23:35;4.95;;;1.60;;
34200;SDS011;20469;55.638;37.670;2023-05-07T12:26:03;6.07;;;2.08;;
34200;SDS011;20469;55.638;37.670;2023-05-07T12:28:37;3.10;;;1.40;;
34200;SDS011;20469;55.638;37.670;2023-05-07T12:31:05;1.75;;;1.20;;
34200;SDS011;20469;55.638;37.670;2023-05-07T12:33:33;1.20;;;1.13;;
34200;SDS011;20469;55.638;37.670;2023-05-07T12:36:05;3.45;;;1.50;;
34200;SDS011;20469;55.638;37.670;2023-05-07T12:38:37;2.92;;;1.60;;
34200;SDS011;20469;55.638;37.670;2023-05-07T12:41:05;3.42;;;1.50;;
34200;SDS011;20469;55.638;37.670;2023-05-07T12:43:34;4.60;;;1.70;;
34200;SDS011;20469;55.638;37.670;2023-05-07T12:46:05;5.80;;;1.80;;
34200;SDS011;20469;55.638;37.670;2023-05-07T12:48:35;3.25;;;1.90;;
34200;SDS011;20469;55.638;37.670;2023-05-07T12:51:04;2.00;;;1.65;;
34200;SDS011;20469;55.638;37.670;2023-05-07T12:53:33;2.15;;;1.65;;
34200;SDS011;20469;55.638;37.670;2023-05-07T12:56:05;3.08;;;1.48;;
34200;SDS011;20469;55.638;37.670;2023-05-07T12:58:33;4.45;;;1.60;;
34200;SDS011;20469;55.638;37.670;2023-05-07T13:01:06;3.78;;;1.70;;
34200;SDS011;20469;55.638;37.670;2023-05-07T13:03:37;1.92;;;1.50;;
34200;SDS011;20469;55.638;37.670;2023-05-07T13:06:08;5.75;;;2.13;;
34200;SDS011;20469;55.638;37.670;2023-05-07T13:08:37;1.88;;;1.38;;
34200;SDS011;20469;55.638;37.670;2023-05-07T13:11:12;1.48;;;1.10;;
34200;SDS011;20469;55.638;37.670;2023-05-07T13:13:40;1.95;;;1.27;;
34200;SDS011;20469;55.638;37.670;2023-05-07T13:16:09;1.55;;;1.35;;
34200;SDS011;20469;55.638;37.670;2023-05-07T13:18:38;3.15;;;1.50;;
34200;SDS011;20469;55.638;37.670;2023-05-07T13:21:06;1.70;;;1.42;;
34200;SDS011;20469;55.638;37.670;2023-05-07T13:23:34;2.70;;;1.15;;
34200;SDS011;20469;55.638;37.670;2023-05-07T13:26:01;1.30;;;1.20;;
34200;SDS011;20469;55.638;37.670;2023-05-07T13:28:40;2.28;;;1.20;;
34200;SDS011;20469;55.638;37.670;2023-05-07T13:31:08;2.03;;;1.15;;
34200;SDS011;20469;55.638;37.670;2023-05-07T13:33:36;2.40;;;1.50;;
34200;SDS011;20469;55.638;37.670;2023-05-07T13:36:03;3.10;;;1.60;;
34200;SDS011;20469;55.638;37.670;2023-05-07T13:38:32;3.58;;;1.58;;
34200;SDS011;20469;55.638;37.670;2023-05-07T13:40:59;1.65;;;1.48;;
34200;SDS011;20469;55.638;37.670;2023-05-07T13:43:26;2.85;;;1.38;;
34200;SDS011;20469;55.638;37.670;2023-05-07T13:45:53;2.42;;;1.52;;
34200;SDS011;20469;55.638;37.670;2023-05-07T13:48:21;2.50;;;1.50;;
34200;SDS011;20469;55.638;37.670;2023-05-07T13:50:48;3.30;;;1.48;;
34200;SDS011;20469;55.638;37.670;2023-05-07T13:53:15;4.03;;;1.67;;
34200;SDS011;20469;55.638;37.670;2023-05-07T13:55:44;2.63;;;1.58;;
34200;SDS011;20469;55.638;37.670;2023-05-07T13:58:11;2.13;;;1.52;;
34200;SDS011;20469;55.638;37.670;2023-05-07T14:00:39;2.70;;;1.40;;
34200;SDS011;20469;55.638;37.670;2023-05-07T14:03:06;4.80;;;1.75;;
34200;SDS011;20469;55.638;37.670;2023-05-07T14:05:34;3.35;;;1.88;;
34200;SDS011;20469;55.638;37.670;2023-05-07T14:08:02;4.68;;;1.70;;
34200;SDS011;20469;55.638;37.670;2023-05-07T14:10:31;3.08;;;1.70;;
34200;SDS011;20469;55.638;37.670;2023-05-07T14:13:01;3.15;;;1.90;;
34200;SDS011;20469;55.638;37.670;2023-05-07T14:15:28;5.32;;;1.95;;
34200;SDS011;20469;55.638;37.670;2023-05-07T14:17:55;3.70;;;1.60;;
34200;SDS011;20469;55.638;37.670;2023-05-07T14:20:24;3.22;;;1.73;;
34200;SDS011;20469;55.638;37.670;2023-05-07T14:22:52;4.18;;;1.83;;
34200;SDS011;20469;55.638;37.670;2023-05-07T14:25:20;4.32;;;2.10;;
34200;SDS011;20469;55.638;37.670;2023-05-07T14:27:50;3.65;;;1.77;;
34200;SDS011;20469;55.638;37.670;2023-05-07T14:30:17;5.57;;;3.22;;
34200;SDS011;20469;55.638;37.670;2023-05-07T14:32:45;4.03;;;2.10;;
34200;SDS011;20469;55.638;37.670;2023-05-07T14:35:13;3.42;;;2.10;;
34200;SDS011;20469;55.638;37.670;2023-05-07T14:37:40;8.52;;;2.10;;
34200;SDS011;20469;55.638;37.670;2023-05-07T14:40:07;4.80;;;2.05;;
34200;SDS011;20469;55.638;37.670;2023-05-07T14:42:35;5.97;;;1.90;;
34200;SDS011;20469;55.638;37.670;2023-05-07T14:45:02;2.75;;;1.65;;
34200;SDS011;20469;55.638;37.670;2023-05-07T14:47:33;2.70;;;1.67;;
34200;SDS011;20469;55.638;37.670;2023-05-07T14:50:01;3.40;;;1.60;;
34200;SDS011;20469;55.638;37.670;2023-05-07T14:52:29;4.03;;;1.85;;
34200;SDS011;20469;55.638;37.670;2023-05-07T14:54:56;2.03;;;1.58;;
34200;SDS011;20469;55.638;37.670;2023-05-07T14:57:23;3.47;;;1.50;;
34200;SDS011;20469;55.638;37.670;2023-05-07T14:59:51;3.03;;;1.50;;